Time;durP1;ratioP1;P1;durP2;ratioP2;P2;SDS_P1;SDS_P2;PMS_P1;PMS_P2;Temp;Humidity;BMP_temperature;BMP_pressure;BME280_temperature;BME280_humidity;BME280_pressure;Samples;Min_cycle;Max_cycle;Signal;HPM_P1;HPM_P2
2021/12/12 00:02:05;;;;;;;58.00;31.00;;;;;;;0.38;77.79;99358.89;103464;1316;111573;-70
2021/12/12 00:04:37;;;;;;;60.00;30.10;;;;;;;0.37;77.79;99360.13;103003;1319;97997;-70
2021/12/12 00:07:10;;;;;;;61.90;33.40;;;;;;;0.35;77.63;99354.44;104223;1316;107933;-71
2021/12/12 00:09:44;;;;;;;63.70;34.10;;;;;;;0.34;77.84;99354.98;103114;1316;96477;-70
2021/12/12 00:12:26;;;;;;;63.10;31.20;;;;;;;0.35;77.86;99354.80;103126;1316;98454;-69
2021/12/12 00:14:56;;;;;;;65.70;34.30;;;;;;;0.35;77.77;99352.35;103083;1315;111543;-70
2021/12/12 00:17:26;;;;;;;61.00;31.20;;;;;;;0.35;77.73;99349.55;103194;1317;97948;-69
2021/12/12 00:19:56;;;;;;;63.80;33.30;;;;;;;0.36;77.86;99340.81;103095;1316;106823;-70
2021/12/12 00:22:29;;;;;;;70.30;35.00;;;;;;;0.36;77.86;99342.38;103110;1316;98667;-70
2021/12/12 00:24:58;;;;;;;72.10;38.60;;;;;;;0.33;77.74;99341.92;103121;1319;97991;-69
2021/12/12 00:27:28;;;;;;;65.20;35.70;;;;;;;0.31;77.80;99347.38;103004;1315;111538;-71
2021/12/12 00:30:02;;;;;;;66.90;35.60;;;;;;;0.32;77.80;99348.93;103140;1317;97959;-70
2021/12/12 00:32:36;;;;;;;60.20;33.00;;;;;;;0.31;77.88;99357.50;102974;1320;108504;-72
2021/12/12 00:35:10;;;;;;;62.50;33.40;;;;;;;0.31;77.82;99363.95;103016;1321;96612;-70
2021/12/12 00:37:40;;;;;;;71.50;36.10;;;;;;;0.31;77.82;99370.08;103099;1319;96611;-71
2021/12/12 00:40:18;;;;;;;66.10;34.50;;;;;;;0.32;77.87;99368.98;103195;1314;111681;-70
2021/12/12 00:42:50;;;;;;;75.30;37.20;;;;;;;0.34;77.83;99364.77;103192;1317;97853;-70
2021/12/12 00:45:21;;;;;;;63.50;34.70;;;;;;;0.34;77.92;99366.68;103023;1316;107699;-70
2021/12/12 00:47:50;;;;;;;69.20;38.00;;;;;;;0.33;77.95;99367.39;103126;1316;97847;-70
2021/12/12 00:50:28;;;;;;;70.80;37.60;;;;;;;0.34;77.86;99371.04;103184;1319;97890;-71
2021/12/12 00:52:59;;;;;;;67.60;33.90;;;;;;;0.34;77.88;99376.61;103197;1316;111495;-70
2021/12/12 00:55:30;;;;;;;67.90;36.50;;;;;;;0.34;77.71;99388.83;103198;1316;97852;-69
2021/12/12 00:57:57;;;;;;;68.10;36.50;;;;;;;0.35;77.92;99395.80;103070;1315;107981;-70
2021/12/12 01:00:30;;;;;;;66.20;34.30;;;;;;;0.36;77.89;99397.16;103006;1316;95292;-70
2021/12/12 01:03:00;;;;;;;64.90;34.30;;;;;;;0.36;77.77;99405.19;103109;1316;95861;-70
2021/12/12 01:05:28;;;;;;;68.10;36.10;;;;;;;0.35;77.90;99412.72;103144;1316;111453;-68
2021/12/12 01:08:00;;;;;;;65.40;35.50;;;;;;;0.36;77.88;99413.21;103077;1320;95304;-69
2021/12/12 01:10:50;;;;;;;64.60;36.00;;;;;;;0.37;77.93;99412.83;103104;1316;108378;-70
2021/12/12 01:13:21;;;;;;;70.10;36.40;;;;;;;0.38;77.88;99411.08;103229;1320;97772;-71
2021/12/12 01:16:06;;;;;;;65.00;35.20;;;;;;;0.38;77.83;99410.89;103099;1316;97961;-73
2021/12/12 01:18:41;;;;;;;68.30;37.50;;;;;;;0.38;77.86;99410.73;102988;1317;111531;-71
2021/12/12 01:21:19;;;;;;;73.70;37.10;;;;;;;0.36;77.83;99411.46;103073;1316;98012;-70
2021/12/12 01:24:09;;;;;;;66.60;36.60;;;;;;;0.36;77.83;99409.73;103012;1322;107895;-70
2021/12/12 01:26:39;;;;;;;68.60;36.30;;;;;;;0.34;77.76;99405.41;104664;1315;95833;-70
2021/12/12 01:29:08;;;;;;;67.70;36.30;;;;;;;0.29;77.68;99405.17;103498;1327;96093;-70
2021/12/12 01:31:46;;;;;;;69.30;38.90;;;;;;;0.28;77.77;99406.77;103256;1316;111500;-69
2021/12/12 01:34:18;;;;;;;70.50;37.50;;;;;;;0.27;77.94;99405.21;104712;1316;96523;-69
2021/12/12 01:39:35;;;;;;;74.20;38.20;;;;;;;0.27;77.68;99409.05;103764;1316;98081;-69
2021/12/12 01:42:15;;;;;;;78.70;41.80;;;;;;;0.27;77.74;99415.87;103216;1317;95190;-69
2021/12/12 01:44:57;;;;;;;72.70;39.40;;;;;;;0.26;77.68;99409.95;103220;1317;111241;-69
2021/12/12 01:47:33;;;;;;;78.90;41.70;;;;;;;0.26;77.70;99408.03;103158;1317;97753;-69
2021/12/12 01:50:20;;;;;;;84.60;41.70;;;;;;;0.25;77.64;99411.20;103104;1317;109682;-69
2021/12/12 01:52:50;;;;;;;82.00;42.00;;;;;;;0.21;77.78;99404.14;103104;1317;97908;-69
2021/12/12 01:55:31;;;;;;;85.70;43.10;;;;;;;0.19;77.74;99402.48;103041;1320;98025;-69
2021/12/12 01:58:06;;;;;;;82.00;42.40;;;;;;;0.16;77.80;99398.52;103229;1316;111935;-69
2021/12/12 02:01:08;;;;;;;89.50;44.20;;;;;;;0.16;77.76;99397.48;103107;1316;97937;-69
2021/12/12 02:03:43;;;;;;;86.30;44.90;;;;;;;0.16;77.84;99399.92;103023;1316;108790;-68
2021/12/12 02:06:17;;;;;;;78.40;38.60;;;;;;;0.17;77.79;99395.36;103069;1317;97980;-69
2021/12/12 02:08:49;;;;;;;95.70;44.70;;;;;;;0.15;77.79;99396.27;103093;1317;97894;-68
2021/12/12 02:11:26;;;;;;;86.00;43.10;;;;;;;0.14;77.83;99393.17;103099;1317;113486;-69
2021/12/12 02:13:59;;;;;;;95.70;48.40;;;;;;;0.12;77.79;99391.80;103086;1317;97934;-69
2021/12/12 02:16:30;;;;;;;88.70;46.00;;;;;;;0.08;77.80;99389.82;103167;1316;107929;-69
2021/12/12 02:19:00;;;;;;;94.80;49.00;;;;;;;0.04;77.74;99394.61;103079;1316;97872;-69
2021/12/12 02:22:00;;;;;;;91.70;47.40;;;;;;;0.01;77.72;99399.94;103085;1316;97927;-71
2021/12/12 02:35:53;;;;;;;90.50;46.30;;;;;;;-0.08;77.79;99422.27;102979;1316;95848;-71
2021/12/12 02:38:27;;;;;;;85.80;44.90;;;;;;;-0.06;77.89;99426.60;103067;1316;111576;-70
2021/12/12 02:41:09;;;;;;;91.80;47.90;;;;;;;-0.04;77.87;99428.30;103064;1317;95227;-70
2021/12/12 02:43:50;;;;;;;90.40;45.70;;;;;;;-0.03;77.92;99426.52;103119;1316;108917;-71
2021/12/12 02:46:27;;;;;;;88.50;42.60;;;;;;;0.01;77.93;99426.95;102826;1319;249026;-70
2021/12/12 02:49:12;;;;;;;84.60;42.50;;;;;;;0.05;77.91;99427.21;102960;1317;98034;-71
2021/12/12 02:51:44;;;;;;;84.60;43.70;;;;;;;0.07;77.84;99424.20;102985;1315;111509;-72
2021/12/12 02:54:11;;;;;;;87.60;46.10;;;;;;;0.09;78.05;99419.61;102989;1315;97915;-70
2021/12/12 02:56:45;;;;;;;83.00;45.40;;;;;;;0.11;77.94;99420.79;103027;1316;107739;-72
2021/12/12 02:59:23;;;;;;;87.00;45.10;;;;;;;0.12;77.93;99421.64;102956;1316;95255;-71
2021/12/12 03:01:53;;;;;;;88.70;46.10;;;;;;;0.11;77.86;99421.31;103076;1316;98063;-70
2021/12/12 03:04:26;;;;;;;88.70;44.80;;;;;;;0.11;77.81;99421.50;102923;1317;111552;-70
2021/12/12 03:06:56;;;;;;;83.40;43.80;;;;;;;0.10;77.81;99424.66;102933;1316;95231;-71
2021/12/12 03:09:46;;;;;;;91.60;47.30;;;;;;;0.09;77.87;99425.54;102957;1316;105959;-72
2021/12/12 03:12:22;;;;;;;88.70;47.10;;;;;;;0.05;77.75;99429.48;102953;1316;98686;-70
2021/12/12 03:14:53;;;;;;;91.00;46.70;;;;;;;0.02;77.73;99429.70;103032;1316;97953;-70
2021/12/12 03:17:23;;;;;;;87.20;47.20;;;;;;;0.03;77.82;99430.04;103004;1320;111147;-70
2021/12/12 03:19:58;;;;;;;88.10;46.00;;;;;;;0.06;77.84;99429.98;103012;1316;96273;-71
2021/12/12 03:22:29;;;;;;;82.70;43.10;;;;;;;0.08;77.97;99428.17;103009;1316;106867;-70
2021/12/12 03:24:57;;;;;;;87.10;44.80;;;;;;;0.11;77.86;99430.03;102997;1316;98020;-69
2021/12/12 03:27:27;;;;;;;83.80;43.40;;;;;;;0.12;77.85;99426.53;103043;1317;97873;-71
2021/12/12 03:29:57;;;;;;;84.60;43.00;;;;;;;0.12;77.93;99427.02;102984;1316;111451;-70
2021/12/12 03:32:25;;;;;;;81.40;42.90;;;;;;;0.13;77.77;99425.98;103016;1316;96754;-70
2021/12/12 03:35:00;;;;;;;89.20;46.00;;;;;;;0.12;77.80;99426.67;103029;1317;107827;-70
2021/12/12 03:37:31;;;;;;;79.70;41.30;;;;;;;0.12;77.84;99429.66;103008;1316;97899;-70
2021/12/12 03:40:24;;;;;;;78.80;42.00;;;;;;;0.12;77.80;99430.18;103008;1317;96683;-71
2021/12/12 03:42:55;;;;;;;74.00;38.80;;;;;;;0.10;77.85;99426.55;103165;1316;111594;-71
2021/12/12 03:45:25;;;;;;;82.80;43.00;;;;;;;0.10;77.83;99430.04;103127;1316;97900;-72
2021/12/12 03:48:03;;;;;;;79.40;42.60;;;;;;;0.08;77.73;99436.91;103042;1320;107889;-69
2021/12/12 03:50:36;;;;;;;71.40;39.70;;;;;;;0.05;77.82;99436.63;102985;1316;97907;-69
2021/12/12 03:53:06;;;;;;;82.70;42.30;;;;;;;0.06;77.78;99441.84;103030;1316;97872;-69
2021/12/12 03:55:38;;;;;;;81.90;41.70;;;;;;;0.05;77.73;99447.80;102963;1316;112185;-69
2021/12/12 03:58:11;;;;;;;81.50;43.00;;;;;;;0.03;77.89;99452.02;103036;1317;95267;-68
2021/12/12 04:00:48;;;;;;;75.40;39.50;;;;;;;0.04;77.80;99458.44;103013;1316;107886;-70
2021/12/12 04:03:19;;;;;;;76.50;39.10;;;;;;;0.05;77.93;99461.39;103083;1316;97928;-70
2021/12/12 04:05:53;;;;;;;77.90;44.20;;;;;;;0.05;77.99;99466.09;103031;1316;97890;-71
2021/12/12 04:08:33;;;;;;;78.40;40.40;;;;;;;0.04;77.85;99467.30;103050;1316;110944;-70
2021/12/12 04:11:05;;;;;;;78.90;40.70;;;;;;;0.04;77.87;99466.11;103110;1316;97981;-71
2021/12/12 04:13:44;;;;;;;81.10;42.40;;;;;;;0.04;77.85;99472.39;103108;1316;107826;-69
2021/12/12 04:16:14;;;;;;;82.60;43.70;;;;;;;0.05;77.89;99473.60;102980;1317;98019;-69
2021/12/12 04:18:44;;;;;;;73.10;39.90;;;;;;;0.06;77.89;99471.31;103048;1316;97857;-73
2021/12/12 04:21:18;;;;;;;71.70;41.20;;;;;;;0.06;77.82;99475.31;102992;1316;111594;-72
2021/12/12 04:23:48;;;;;;;86.20;44.20;;;;;;;0.06;77.89;99480.54;103012;1316;95242;-71
2021/12/12 04:26:23;;;;;;;77.80;42.10;;;;;;;0.05;77.80;99484.91;103055;1316;107730;-71
2021/12/12 04:29:14;;;;;;;80.30;41.70;;;;;;;0.05;77.80;99488.25;103028;1316;98598;-73
2021/12/12 04:31:46;;;;;;;82.80;43.10;;;;;;;0.03;77.87;99489.84;102973;1316;97988;-71
2021/12/12 04:34:14;;;;;;;81.50;41.40;;;;;;;0.03;77.86;99488.11;103008;1316;111032;-71
2021/12/12 04:36:48;;;;;;;76.60;41.00;;;;;;;0.02;77.82;99484.47;103000;1315;97913;-72
2021/12/12 04:39:27;;;;;;;77.50;40.80;;;;;;;0.01;77.65;99489.21;103044;1315;105577;-71
2021/12/12 04:42:24;;;;;;;75.40;40.40;;;;;;;-0.01;77.72;99495.19;103037;1315;97944;-70
2021/12/12 04:45:18;;;;;;;79.70;43.10;;;;;;;-0.02;77.88;99502.87;102994;1318;97843;-71
2021/12/12 04:51:28;;;;;;;88.30;43.40;;;;;;;-0.06;77.69;99506.10;103151;1319;95320;-73
2021/12/12 04:54:21;;;;;;;84.90;42.70;;;;;;;-0.08;77.85;99506.84;103074;1317;105417;-70
2021/12/12 04:57:04;;;;;;;87.30;44.00;;;;;;;-0.09;77.78;99510.34;103188;1317;97860;-70
2021/12/12 04:59:40;;;;;;;83.90;44.90;;;;;;;-0.10;77.80;99516.12;102963;1319;98502;-70
2021/12/12 05:02:26;;;;;;;85.80;47.20;;;;;;;-0.09;77.81;99517.16;103000;1316;113800;-70
2021/12/12 05:04:57;;;;;;;90.70;47.20;;;;;;;-0.08;77.85;99509.98;102991;1317;95224;-69
2021/12/12 05:07:37;;;;;;;87.80;47.20;;;;;;;-0.10;77.84;99509.66;102967;1317;108581;-70
2021/12/12 05:10:11;;;;;;;88.40;47.80;;;;;;;-0.10;77.91;99515.25;103084;1316;98069;-70
2021/12/12 05:12:52;;;;;;;86.20;46.20;;;;;;;-0.09;77.97;99526.02;103090;1319;97896;-70
2021/12/12 05:15:31;;;;;;;85.70;45.40;;;;;;;-0.08;77.89;99530.02;103115;1316;112139;-70
2021/12/12 05:18:09;;;;;;;88.30;45.60;;;;;;;-0.08;77.85;99531.96;103093;1323;97998;-70
2021/12/12 05:20:44;;;;;;;92.10;48.20;;;;;;;-0.07;77.94;99531.05;103111;1317;107841;-70
2021/12/12 05:23:21;;;;;;;97.60;51.00;;;;;;;-0.06;77.90;99528.24;103118;1317;97927;-72
2021/12/12 05:25:57;;;;;;;96.10;50.50;;;;;;;-0.05;78.00;99526.82;103095;1322;97897;-71
2021/12/12 05:28:35;;;;;;;91.00;49.40;;;;;;;-0.04;77.91;99530.65;103072;1320;111513;-70
2021/12/12 05:31:08;;;;;;;98.50;52.90;;;;;;;-0.03;77.91;99534.61;103200;1316;95294;-69
2021/12/12 05:33:38;;;;;;;101.90;53.90;;;;;;;-0.03;77.77;99530.45;103007;1313;107874;-70
2021/12/12 05:36:13;;;;;;;89.80;51.30;;;;;;;-0.04;77.89;99533.44;103057;1316;97918;-71
2021/12/12 05:38:42;;;;;;;101.30;51.10;;;;;;;-0.04;77.87;99536.21;103107;1320;95242;-70
2021/12/12 05:41:14;;;;;;;104.30;53.90;;;;;;;-0.05;77.84;99541.11;103051;1316;111552;-70
2021/12/12 05:43:42;;;;;;;96.90;52.30;;;;;;;-0.05;77.89;99545.48;103155;1317;97925;-69
2021/12/12 05:46:15;;;;;;;100.90;52.40;;;;;;;-0.04;77.95;99549.29;103119;1313;107809;-71
2021/12/12 05:48:45;;;;;;;102.20;52.20;;;;;;;-0.03;77.84;99551.36;103075;1317;98462;-71
2021/12/12 05:51:17;;;;;;;97.40;52.20;;;;;;;-0.05;77.88;99551.75;103205;1317;97914;-70
2021/12/12 05:53:52;;;;;;;98.50;52.40;;;;;;;-0.08;77.84;99554.96;103063;1320;111576;-70
2021/12/12 05:56:26;;;;;;;101.10;53.50;;;;;;;-0.10;77.80;99559.02;103165;1316;97891;-69
2021/12/12 05:58:56;;;;;;;101.20;52.20;;;;;;;-0.13;77.88;99560.65;103122;1320;107917;-69
2021/12/12 06:01:28;;;;;;;96.40;49.00;;;;;;;-0.14;77.98;99562.58;103043;1319;98005;-70
2021/12/12 06:03:59;;;;;;;98.00;51.10;;;;;;;-0.14;77.86;99560.83;103156;1317;97947;-70
2021/12/12 06:06:36;;;;;;;107.10;56.80;;;;;;;-0.15;77.90;99564.69;103135;1316;111489;-70
2021/12/12 06:09:09;;;;;;;103.80;52.20;;;;;;;-0.17;77.95;99569.60;103118;1317;97912;-70
2021/12/12 06:11:43;;;;;;;104.00;53.20;;;;;;;-0.17;78.10;99573.61;103175;1316;107877;-71
2021/12/12 06:14:14;;;;;;;111.70;56.10;;;;;;;-0.15;77.90;99578.29;103058;1317;97995;-70
2021/12/12 06:16:45;;;;;;;100.40;52.50;;;;;;;-0.16;78.06;99580.39;103117;1319;97963;-69
2021/12/12 06:19:24;;;;;;;100.90;52.90;;;;;;;-0.15;78.03;99582.81;103092;1319;111520;-71
2021/12/12 06:21:58;;;;;;;104.50;53.70;;;;;;;-0.15;77.97;99586.66;103117;1316;97974;-71
2021/12/12 06:24:31;;;;;;;106.20;53.50;;;;;;;-0.18;77.92;99591.58;102991;1317;107843;-71
2021/12/12 06:27:14;;;;;;;95.00;50.90;;;;;;;-0.19;77.99;99590.20;103179;1320;98039;-72
2021/12/12 06:29:50;;;;;;;108.70;54.60;;;;;;;-0.18;78.09;99595.24;103234;1319;97049;-69
2021/12/12 06:32:19;;;;;;;110.00;54.00;;;;;;;-0.19;77.98;99593.70;103071;1319;112293;-70
2021/12/12 06:34:51;;;;;;;105.80;52.20;;;;;;;-0.18;78.09;99594.89;102975;1320;95897;-70
2021/12/12 06:37:22;;;;;;;108.00;53.70;;;;;;;-0.16;78.08;99600.79;103133;1317;107906;-69
2021/12/12 06:39:52;;;;;;;101.90;51.90;;;;;;;-0.15;78.08;99603.73;103040;1316;97965;-70
2021/12/12 06:42:23;;;;;;;103.20;55.00;;;;;;;-0.13;78.03;99607.55;103088;1317;97913;-70
2021/12/12 06:44:51;;;;;;;101.80;52.60;;;;;;;-0.11;78.07;99608.20;103176;1317;111538;-70
2021/12/12 06:47:21;;;;;;;102.00;54.30;;;;;;;-0.08;78.21;99601.85;103194;1316;97963;-69
2021/12/12 06:49:52;;;;;;;105.10;54.20;;;;;;;-0.05;78.05;99600.91;103061;1317;108443;-70
2021/12/12 06:52:21;;;;;;;100.60;51.20;;;;;;;-0.02;78.15;99600.67;103201;1317;96357;-70
2021/12/12 06:54:52;;;;;;;99.40;52.30;;;;;;;0.02;78.20;99601.11;103178;1317;97894;-71
2021/12/12 06:57:22;;;;;;;101.80;55.10;;;;;;;0.06;78.15;99607.14;103217;1317;111519;-70
2021/12/12 06:59:53;;;;;;;104.50;54.50;;;;;;;0.09;78.17;99606.91;103100;1317;95193;-71
2021/12/12 07:02:25;;;;;;;97.30;54.70;;;;;;;0.11;78.08;99609.84;103117;1316;107773;-71
2021/12/12 07:04:55;;;;;;;102.80;53.90;;;;;;;0.13;78.09;99612.05;103074;1317;96024;-70
2021/12/12 07:07:28;;;;;;;106.90;55.70;;;;;;;0.13;77.92;99607.00;103182;1316;97899;-72
2021/12/12 07:09:56;;;;;;;104.90;56.40;;;;;;;0.12;77.95;99604.40;103233;1320;111200;-71
2021/12/12 07:12:27;;;;;;;105.70;53.80;;;;;;;0.14;77.98;99604.55;103246;1317;98018;-71
2021/12/12 07:14:55;;;;;;;104.10;55.20;;;;;;;0.15;78.06;99608.52;103235;1316;107852;-70
2021/12/12 07:17:25;;;;;;;107.10;55.30;;;;;;;0.16;78.10;99616.72;103222;1316;98756;-71
2021/12/12 07:19:56;;;;;;;111.00;59.80;;;;;;;0.16;78.05;99618.98;103250;1317;97940;-70
2021/12/12 07:22:26;;;;;;;113.90;57.20;;;;;;;0.17;78.06;99617.04;103201;1316;112097;-72
2021/12/12 07:24:54;;;;;;;110.20;56.30;;;;;;;0.18;78.07;99617.38;103214;1316;97860;-71
2021/12/12 07:27:21;;;;;;;112.40;58.20;;;;;;;0.18;78.10;99617.55;103129;1313;109801;-70
2021/12/12 07:29:49;;;;;;;110.50;57.50;;;;;;;0.19;78.02;99613.86;103168;1317;97963;-70
2021/12/12 07:32:17;;;;;;;108.60;58.00;;;;;;;0.22;78.16;99612.23;103203;1316;97980;-71
2021/12/12 07:34:48;;;;;;;111.40;57.90;;;;;;;0.22;78.07;99612.90;103192;1320;113141;-72
2021/12/12 07:37:18;;;;;;;112.30;60.30;;;;;;;0.21;77.93;99613.98;103127;1316;97869;-70
2021/12/12 07:39:51;;;;;;;110.20;57.80;;;;;;;0.19;77.88;99614.21;103055;1316;107904;-69
2021/12/12 07:42:19;;;;;;;95.10;45.70;;;;;;;0.16;78.02;99619.33;103087;1315;98548;-71
2021/12/12 07:44:47;;;;;;;107.90;58.80;;;;;;;0.15;77.93;99617.25;103073;1317;97885;-70
2021/12/12 07:47:17;;;;;;;115.20;56.90;;;;;;;0.13;77.95;99619.89;103223;1315;111680;-70
2021/12/12 07:49:50;;;;;;;110.60;59.50;;;;;;;0.13;78.02;99624.09;103133;1315;97262;-71
2021/12/12 07:52:23;;;;;;;110.20;57.50;;;;;;;0.11;77.98;99623.61;103191;1317;106207;-70
2021/12/12 07:54:55;;;;;;;114.90;62.10;;;;;;;0.09;77.93;99624.87;103180;1316;97955;-70
2021/12/12 07:57:28;;;;;;;109.50;59.60;;;;;;;0.08;77.97;99628.90;103121;1316;96040;-69
2021/12/12 07:59:59;;;;;;;117.40;59.00;;;;;;;0.06;77.99;99629.63;103126;1316;111536;-69
2021/12/12 08:02:30;;;;;;;110.20;58.00;;;;;;;0.08;78.02;99628.91;103076;1316;98333;-68
2021/12/12 08:05:01;;;;;;;118.50;59.00;;;;;;;0.07;77.94;99626.64;103056;1314;108536;-70
2021/12/12 08:07:29;;;;;;;116.40;60.60;;;;;;;0.06;77.90;99621.09;103102;1316;95264;-69
2021/12/12 08:10:01;;;;;;;104.90;58.20;;;;;;;0.03;77.86;99625.17;103055;1316;97996;-70
2021/12/12 08:12:31;;;;;;;117.90;63.90;;;;;;;0.01;77.96;99622.08;103105;1316;113199;-69
2021/12/12 08:15:04;;;;;;;112.30;61.40;;;;;;;0.00;78.01;99628.20;103110;1316;96600;-69
2021/12/12 08:17:32;;;;;;;112.80;61.30;;;;;;;-0.00;78.10;99630.13;103101;1316;107920;-70
2021/12/12 08:20:01;;;;;;;119.00;60.80;;;;;;;-0.03;77.93;99627.20;103060;1316;95660;-70
2021/12/12 08:22:33;;;;;;;113.10;58.50;;;;;;;-0.05;77.92;99624.83;103070;1316;98017;-70
2021/12/12 08:25:05;;;;;;;113.70;58.40;;;;;;;-0.07;77.90;99624.67;103103;1316;111730;-72
2021/12/12 08:27:33;;;;;;;105.00;55.10;;;;;;;-0.10;77.91;99623.86;103084;1316;96536;-72
2021/12/12 08:30:02;;;;;;;115.90;59.60;;;;;;;-0.12;77.85;99623.91;103099;1315;108750;-73
2021/12/12 08:32:29;;;;;;;118.10;60.70;;;;;;;-0.17;77.95;99621.71;103036;1315;96001;-71
2021/12/12 08:35:14;;;;;;;118.90;61.30;;;;;;;-0.21;77.79;99625.13;103106;1316;95259;-70
2021/12/12 08:37:48;;;;;;;113.80;60.70;;;;;;;-0.23;77.96;99627.79;103103;1315;111534;-70
2021/12/12 08:40:25;;;;;;;116.50;60.50;;;;;;;-0.21;78.03;99627.23;103191;1315;97049;-71
2021/12/12 08:42:58;;;;;;;110.60;54.00;;;;;;;-0.24;77.90;99627.29;103104;1315;107853;-71
2021/12/12 08:45:32;;;;;;;119.00;59.80;;;;;;;-0.27;77.87;99628.20;103130;1316;97789;-71
2021/12/12 08:48:03;;;;;;;109.70;56.90;;;;;;;-0.29;77.88;99627.02;103077;1317;96677;-72
2021/12/12 08:50:36;;;;;;;123.70;60.40;;;;;;;-0.32;77.77;99630.90;103231;1316;112442;-71
2021/12/12 08:53:08;;;;;;;106.40;56.00;;;;;;;-0.34;77.88;99621.54;103180;1316;98046;-71
2021/12/12 08:55:44;;;;;;;108.50;58.50;;;;;;;-0.36;77.91;99623.49;103170;1316;107799;-71
2021/12/12 08:58:23;;;;;;;115.30;58.70;;;;;;;-0.35;78.11;99621.55;103203;1316;97925;-72
2021/12/12 09:01:03;;;;;;;106.80;54.60;;;;;;;-0.34;78.15;99622.40;103219;1311;97839;-71
2021/12/12 09:03:51;;;;;;;113.50;56.10;;;;;;;-0.34;78.00;99624.51;103191;1316;111660;-71
2021/12/12 09:06:28;;;;;;;102.70;50.80;;;;;;;-0.35;77.90;99630.09;103136;1316;98007;-71
2021/12/12 09:09:02;;;;;;;102.10;52.40;;;;;;;-0.37;77.93;99628.04;103167;1314;107781;-69
2021/12/12 09:11:59;;;;;;;114.50;55.40;;;;;;;-0.38;77.97;99622.48;103114;1316;98010;-71
2021/12/12 09:14:37;;;;;;;107.80;55.50;;;;;;;-0.42;77.86;99621.88;103233;1317;98040;-70
2021/12/12 09:17:32;;;;;;;99.60;51.00;;;;;;;-0.38;78.01;99617.43;103159;1316;111227;-72
2021/12/12 09:20:23;;;;;;;105.20;53.80;;;;;;;-0.34;78.05;99610.90;103094;1314;98505;-74
2021/12/12 09:23:07;;;;;;;95.80;47.70;;;;;;;-0.29;78.11;99611.35;103087;1316;107810;-72
2021/12/12 09:25:51;;;;;;;122.10;59.30;;;;;;;-0.27;78.05;99609.04;102994;1316;97972;-71
2021/12/12 09:28:35;;;;;;;126.60;60.90;;;;;;;-0.31;77.95;99608.23;103446;1316;95613;-73
2021/12/12 09:31:10;;;;;;;112.40;57.30;;;;;;;-0.33;78.03;99609.84;103019;1315;112426;-69
2021/12/12 09:34:06;;;;;;;115.20;56.40;;;;;;;-0.31;78.08;99610.67;103164;1314;96515;-70
2021/12/12 09:36:51;;;;;;;114.90;53.90;;;;;;;-0.33;77.84;99610.89;103095;1316;107912;-70
2021/12/12 09:39:32;;;;;;;109.40;54.70;;;;;;;-0.36;77.72;99609.38;103672;1315;96642;-71
2021/12/12 09:42:22;;;;;;;110.20;53.60;;;;;;;-0.40;77.75;99609.63;103133;1317;98312;-70
2021/12/12 09:45:42;;;;;;;110.10;57.10;;;;;;;-0.40;78.03;99605.62;103009;1316;111454;-70
2021/12/12 09:51:17;;;;;;;102.80;51.40;;;;;;;-0.38;77.97;99604.71;104772;1316;107801;-70
2021/12/12 09:54:03;;;;;;;101.90;48.50;;;;;;;-0.34;78.12;99601.48;104688;1316;95977;-70
2021/12/12 09:56:36;;;;;;;107.00;53.60;;;;;;;-0.35;77.79;99599.42;104707;1316;95890;-70
2021/12/12 09:59:11;;;;;;;107.30;53.80;;;;;;;-0.38;77.81;99598.08;104727;1315;111472;-71
2021/12/12 10:01:52;;;;;;;99.70;50.20;;;;;;;-0.38;77.91;99601.73;104488;1316;97934;-71
2021/12/12 10:04:34;;;;;;;111.80;54.50;;;;;;;-0.38;77.86;99596.33;103128;1316;106160;-71
2021/12/12 10:07:08;;;;;;;102.90;50.10;;;;;;;-0.41;77.71;99594.31;103166;1316;98025;-69
2021/12/12 10:09:58;;;;;;;110.90;53.40;;;;;;;-0.42;77.77;99589.81;103109;1316;95290;-70
2021/12/12 10:12:33;;;;;;;106.10;53.10;;;;;;;-0.49;77.78;99589.94;103235;1315;111450;-70
2021/12/12 10:15:19;;;;;;;107.70;52.50;;;;;;;-0.51;77.88;99589.61;103061;1315;97864;-70
2021/12/12 10:18:01;;;;;;;106.00;47.90;;;;;;;-0.51;77.78;99596.61;103141;1320;107848;-70
2021/12/12 10:20:41;;;;;;;94.90;45.40;;;;;;;-0.58;77.57;99601.42;103134;1319;97882;-71
2021/12/12 10:23:15;;;;;;;93.70;43.70;;;;;;;-0.64;77.72;99597.02;103118;1316;97934;-71
2021/12/12 10:25:45;;;;;;;95.90;43.50;;;;;;;-0.72;77.67;99594.37;103186;1320;111457;-70
2021/12/12 10:28:32;;;;;;;98.30;46.00;;;;;;;-0.74;77.71;99598.91;103083;1317;97995;-71
2021/12/12 10:31:22;;;;;;;98.60;47.00;;;;;;;-0.79;77.72;99594.48;103173;1316;107879;-71
2021/12/12 10:33:57;;;;;;;81.70;40.60;;;;;;;-0.83;77.70;99597.87;103139;1317;95303;-71
2021/12/12 10:36:51;;;;;;;90.60;43.00;;;;;;;-0.86;77.65;99598.44;102999;1319;97893;-71
2021/12/12 10:39:25;;;;;;;90.90;42.40;;;;;;;-0.85;78.05;99596.85;103062;1316;111601;-70
2021/12/12 10:42:08;;;;;;;95.30;44.10;;;;;;;-0.82;77.85;99595.95;103130;1316;97900;-72
2021/12/12 10:44:47;;;;;;;93.60;45.90;;;;;;;-0.82;78.09;99599.59;103118;1316;106723;-74
2021/12/12 10:47:32;;;;;;;83.70;42.20;;;;;;;-0.82;77.75;99600.96;102998;1316;255806;-73
2021/12/12 10:50:25;;;;;;;93.10;40.50;;;;;;;-0.85;77.85;99607.84;103149;1316;97914;-73
2021/12/12 10:53:31;;;;;;;87.40;41.00;;;;;;;-0.95;77.66;99609.56;103060;1316;111346;-75
2021/12/12 10:56:33;;;;;;;88.80;41.30;;;;;;;-1.01;77.74;99605.48;103125;1320;97998;-72
2021/12/12 10:59:20;;;;;;;84.30;38.40;;;;;;;-1.00;77.91;99604.43;103098;1319;107865;-72
2021/12/12 11:01:54;;;;;;;94.20;44.80;;;;;;;-1.04;77.83;99598.58;103078;1317;98021;-72
2021/12/12 11:04:37;;;;;;;90.30;42.30;;;;;;;-1.12;77.95;99600.10;103210;1316;97903;-73
2021/12/12 11:07:18;;;;;;;67.50;32.90;;;;;;;-1.19;77.94;99596.53;103104;1316;111663;-74
2021/12/12 11:10:05;;;;;;;91.10;41.50;;;;;;;-1.18;78.05;99594.09;103117;1320;97785;-73
2021/12/12 11:12:57;;;;;;;95.20;42.20;;;;;;;-1.15;78.07;99596.66;103064;1319;107822;-71
2021/12/12 11:16:03;;;;;;;98.90;42.70;;;;;;;-1.12;78.01;99598.52;102951;1319;97463;-72
2021/12/12 11:18:37;;;;;;;88.80;41.10;;;;;;;-1.10;78.24;99597.63;102823;1318;95331;-74
2021/12/12 11:21:09;;;;;;;99.00;44.30;;;;;;;-1.16;78.10;99593.71;103126;1317;111585;-73
2021/12/12 11:23:55;;;;;;;92.40;42.30;;;;;;;-1.18;77.79;99594.96;103123;1315;95267;-72
2021/12/12 11:26:42;;;;;;;96.00;43.70;;;;;;;-1.18;78.05;99593.92;103120;1319;107817;-73
2021/12/12 11:29:17;;;;;;;91.60;42.00;;;;;;;-1.22;77.78;99594.15;103199;1316;95294;-72
2021/12/12 11:31:52;;;;;;;85.60;38.40;;;;;;;-1.27;77.78;99594.08;103149;1316;97974;-72
2021/12/12 11:34:46;;;;;;;74.20;35.10;;;;;;;-1.31;78.01;99590.30;103176;1317;111603;-71
2021/12/12 11:37:31;;;;;;;80.80;37.40;;;;;;;-1.35;77.93;99589.65;103113;1316;97924;-72
2021/12/12 11:40:45;;;;;;;91.10;41.40;;;;;;;-1.39;77.87;99593.91;103084;1316;107642;-71
2021/12/12 11:43:42;;;;;;;89.90;39.80;;;;;;;-1.45;77.79;99594.53;103223;1316;97968;-72
2021/12/12 11:46:44;;;;;;;84.90;37.80;;;;;;;-1.49;77.80;99595.42;102642;1316;98061;-73
2021/12/12 11:49:23;;;;;;;96.40;40.40;;;;;;;-1.48;77.90;99600.13;102977;1317;111574;-71
2021/12/12 11:51:58;;;;;;;93.80;41.60;;;;;;;-1.47;78.02;99597.51;103122;1316;97392;-71
2021/12/12 11:54:41;;;;;;;88.90;39.50;;;;;;;-1.50;77.70;99599.27;103141;1316;107833;-72
2021/12/12 11:57:18;;;;;;;83.40;38.80;;;;;;;-1.55;77.77;99596.57;103094;1316;97857;-71
2021/12/12 12:00:15;;;;;;;95.70;43.80;;;;;;;-1.56;77.90;99597.27;103164;1316;98020;-74
2021/12/12 12:03:29;;;;;;;87.50;41.50;;;;;;;-1.55;77.94;99596.73;103109;1316;111513;-72
2021/12/12 12:06:07;;;;;;;85.60;39.00;;;;;;;-1.56;78.04;99600.41;103117;1316;97838;-73
2021/12/12 12:08:52;;;;;;;88.30;39.60;;;;;;;-1.56;78.09;99603.02;103162;1317;107725;-72
2021/12/12 12:11:38;;;;;;;88.50;41.00;;;;;;;-1.51;77.96;99601.90;103146;1316;96248;-71